Time;durP1;ratioP1;P1;durP2;ratioP2;P2;SDS_P1;SDS_P2;PMS_P1;PMS_P2;Temp;Humidity;BMP_temperature;BMP_pressure;BME280_temperature;BME280_humidity;BME280_pressure;Samples;Min_cycle;Max_cycle;Signal;HPM_P1;HPM_P2
2022/08/15 00:00:25;;;;;;;13.60;11.18;;;;;;;;;;5010520;28;20149;-79
2022/08/15 00:02:57;;;;;;;12.90;10.63;;;;;;;;;;5008666;28;20461;-80
2022/08/15 00:05:28;;;;;;;15.88;9.90;;;;;;;;;;5007209;28;20074;-80
2022/08/15 00:07:56;;;;;;;13.25;10.25;;;;;;;;;;4996167;28;20050;-79
2022/08/15 00:10:23;;;;;;;11.73;9.85;;;;;;;;;;5003800;28;20057;-79
2022/08/15 00:13:33;;;;;;;12.90;9.82;;;;;;;;;;5012067;28;20061;-79
2022/08/15 00:16:09;;;;;;;13.40;10.10;;;;;;;;;;5003151;28;20065;-79
2022/08/15 00:18:47;;;;;;;15.38;10.43;;;;;;;;;;4996691;28;20063;-80
2022/08/15 00:21:19;;;;;;;12.18;9.55;;;;;;;;;;4997075;28;20105;-79
2022/08/15 00:23:49;;;;;;;14.68;9.98;;;;;;;;;;4997227;28;20050;-80
2022/08/15 00:26:17;;;;;;;11.77;9.50;;;;;;;;;;5004217;28;20046;-79
2022/08/15 00:29:06;;;;;;;14.63;10.00;;;;;;;;;;5016085;28;20044;-79
2022/08/15 00:31:36;;;;;;;12.30;10.18;;;;;;;;;;5006762;28;20034;-79
2022/08/15 00:34:08;;;;;;;12.70;10.37;;;;;;;;;;5001385;28;20058;-79
2022/08/15 00:36:57;;;;;;;12.63;9.40;;;;;;;;;;5009655;28;20054;-79
2022/08/15 00:39:26;;;;;;;15.20;10.48;;;;;;;;;;5002822;28;20057;-80
2022/08/15 00:42:00;;;;;;;12.45;10.30;;;;;;;;;;5013316;28;20045;-79
2022/08/15 00:44:34;;;;;;;17.92;9.95;;;;;;;;;;5008426;28;20807;-79
2022/08/15 00:47:23;;;;;;;12.63;10.00;;;;;;;;;;5010198;28;20059;-79
2022/08/15 00:49:57;;;;;;;13.45;9.25;;;;;;;;;;5007180;28;20097;-79
2022/08/15 00:52:28;;;;;;;12.98;9.98;;;;;;;;;;5009264;28;20063;-79
2022/08/15 00:55:01;;;;;;;15.23;10.20;;;;;;;;;;5004619;28;20074;-80
2022/08/15 00:57:30;;;;;;;12.30;9.37;;;;;;;;;;5004364;28;20090;-79
2022/08/15 01:00:20;;;;;;;11.23;9.75;;;;;;;;;;5006438;28;20081;-80
2022/08/15 01:03:04;;;;;;;12.68;10.32;;;;;;;;;;4998998;28;20051;-79
2022/08/15 01:05:43;;;;;;;12.18;10.18;;;;;;;;;;5005437;28;20058;-79
2022/08/15 01:08:15;;;;;;;;;;;;;;;;;;5010088;28;20117;-79
2022/08/15 01:10:44;;;;;;;14.65;10.15;;;;;;;;;;4999588;28;43492;-79
2022/08/15 01:13:30;;;;;;;12.82;9.65;;;;;;;;;;4999398;28;20086;-79
2022/08/15 01:16:18;;;;;;;11.65;8.85;;;;;;;;;;5012405;28;20305;-79
2022/08/15 01:19:01;;;;;;;11.23;9.40;;;;;;;;;;5006731;28;20069;-79
2022/08/15 01:21:35;;;;;;;14.57;9.50;;;;;;;;;;4995955;28;20134;-79
2022/08/15 01:24:13;;;;;;;10.48;8.20;;;;;;;;;;5002662;28;20666;-79
2022/08/15 01:26:42;;;;;;;13.88;8.57;;;;;;;;;;4995473;28;20746;-79
2022/08/15 01:29:17;;;;;;;14.30;10.13;;;;;;;;;;5003509;28;20110;-79
2022/08/15 01:31:50;;;;;;;12.35;9.55;;;;;;;;;;5019314;28;20932;-79
2022/08/15 01:34:17;;;;;;;12.48;9.57;;;;;;;;;;5004415;28;20030;-79
2022/08/15 01:36:46;;;;;;;14.18;9.98;;;;;;;;;;4998789;28;20058;-79
2022/08/15 01:39:32;;;;;;;14.32;10.55;;;;;;;;;;5003632;28;20061;-79
2022/08/15 01:42:03;;;;;;;11.65;9.57;;;;;;;;;;5007323;28;20062;-79
2022/08/15 01:44:34;;;;;;;;;;;;;;;;;;5004552;28;20058;-79
2022/08/15 01:47:03;;;;;;;12.98;10.10;;;;;;;;;;5005805;28;45118;-79
2022/08/15 01:49:42;;;;;;;12.07;10.88;;;;;;;;;;5008718;28;20058;-79
2022/08/15 01:52:11;;;;;;;18.98;10.60;;;;;;;;;;5009844;28;20113;-79
2022/08/15 01:55:01;;;;;;;13.73;10.82;;;;;;;;;;5005257;28;20074;-79
2022/08/15 01:57:32;;;;;;;12.48;10.10;;;;;;;;;;5010787;28;20058;-79
2022/08/15 02:00:00;;;;;;;13.00;10.18;;;;;;;;;;5009153;28;20102;-79
2022/08/15 02:02:28;;;;;;;20.83;10.70;;;;;;;;;;5005238;28;20054;-79
2022/08/15 02:05:13;;;;;;;11.50;10.30;;;;;;;;;;5003479;28;20059;-79
2022/08/15 02:07:41;;;;;;;14.15;10.05;;;;;;;;;;4995915;28;20062;-78
2022/08/15 02:10:29;;;;;;;13.57;8.95;;;;;;;;;;5009795;28;20046;-78
2022/08/15 02:12:59;;;;;;;10.60;9.32;;;;;;;;;;5010008;28;20081;-79
2022/08/15 02:15:38;;;;;;;13.18;9.60;;;;;;;;;;5004579;28;20670;-79
2022/08/15 02:18:10;;;;;;;13.00;10.05;;;;;;;;;;5002896;28;20138;-79
2022/08/15 02:20:37;;;;;;;10.68;8.85;;;;;;;;;;4997637;28;20050;-79
2022/08/15 02:23:06;;;;;;;11.35;9.32;;;;;;;;;;4999434;28;20063;-79
2022/08/15 02:25:43;;;;;;;11.18;8.52;;;;;;;;;;5001752;28;20055;-78
2022/08/15 02:28:10;;;;;;;15.82;9.32;;;;;;;;;;5006955;28;20057;-78
2022/08/15 02:30:57;;;;;;;12.27;9.30;;;;;;;;;;5007524;28;20082;-79
2022/08/15 02:33:29;;;;;;;10.70;8.90;;;;;;;;;;4997378;28;20050;-79
2022/08/15 02:36:02;;;;;;;11.60;9.38;;;;;;;;;;5004746;28;20046;-79
2022/08/15 02:38:31;;;;;;;12.20;9.10;;;;;;;;;;5003673;28;20948;-79
2022/08/15 02:41:15;;;;;;;12.63;8.88;;;;;;;;;;5002685;28;20061;-79
2022/08/15 02:43:45;;;;;;;14.65;9.55;;;;;;;;;;5002430;28;20051;-79
2022/08/15 02:46:16;;;;;;;12.85;9.63;;;;;;;;;;5006120;28;20050;-79
2022/08/15 02:48:58;;;;;;;10.17;8.83;;;;;;;;;;5001561;28;20061;-78
2022/08/15 02:51:26;;;;;;;12.93;9.23;;;;;;;;;;5005836;28;20058;-79
2022/08/15 02:53:55;;;;;;;14.82;9.63;;;;;;;;;;5000143;28;20046;-79
2022/08/15 02:56:28;;;;;;;11.77;9.90;;;;;;;;;;5007031;28;20058;-79
2022/08/15 02:58:57;;;;;;;13.38;9.57;;;;;;;;;;5002552;28;20058;-79
2022/08/15 03:01:26;;;;;;;11.85;9.10;;;;;;;;;;5005606;28;20689;-78
2022/08/15 03:04:00;;;;;;;12.65;9.80;;;;;;;;;;5003786;28;20062;-79
2022/08/15 03:06:48;;;;;;;10.93;9.48;;;;;;;;;;5007709;28;20508;-79
2022/08/15 03:09:16;;;;;;;14.73;9.88;;;;;;;;;;5000465;28;20496;-78
2022/08/15 03:11:44;;;;;;;12.40;9.02;;;;;;;;;;5006882;28;20799;-78
2022/08/15 03:14:25;;;;;;;12.35;9.23;;;;;;;;;;5000894;28;20163;-79
2022/08/15 03:17:00;;;;;;;17.60;8.73;;;;;;;;;;5003918;28;20062;-78
2022/08/15 03:19:27;;;;;;;13.32;9.27;;;;;;;;;;5006115;28;20046;-79
2022/08/15 03:21:59;;;;;;;14.45;9.40;;;;;;;;;;5005665;28;20055;-79
2022/08/15 03:24:27;;;;;;;13.30;9.95;;;;;;;;;;5004062;28;20054;-80
2022/08/15 03:26:54;;;;;;;14.35;9.70;;;;;;;;;;5008915;28;21436;-78
2022/08/15 03:29:23;;;;;;;11.52;9.85;;;;;;;;;;5004658;28;20081;-78
2022/08/15 03:32:00;;;;;;;10.77;9.50;;;;;;;;;;5004539;28;20050;-78
2022/08/15 03:34:28;;;;;;;12.93;9.68;;;;;;;;;;5000436;28;20897;-78
2022/08/15 03:36:57;;;;;;;13.75;9.45;;;;;;;;;;5004834;28;20046;-79
2022/08/15 03:39:27;;;;;;;15.65;8.90;;;;;;;;;;5008671;28;20061;-79
2022/08/15 03:41:59;;;;;;;14.48;9.48;;;;;;;;;;4998369;28;20055;-78
2022/08/15 03:44:29;;;;;;;10.85;8.80;;;;;;;;;;5006138;28;20055;-79
2022/08/15 03:46:59;;;;;;;11.73;8.65;;;;;;;;;;5002800;28;20054;-79
2022/08/15 03:49:28;;;;;;;13.20;9.45;;;;;;;;;;5000869;28;20042;-78
2022/08/15 03:52:16;;;;;;;11.15;9.65;;;;;;;;;;5004258;28;20057;-78
2022/08/15 03:55:01;;;;;;;11.55;9.15;;;;;;;;;;5005481;28;20489;-78
2022/08/15 03:57:29;;;;;;;13.18;10.40;;;;;;;;;;5006690;28;20093;-78
2022/08/15 04:00:18;;;;;;;14.80;10.82;;;;;;;;;;4997035;28;20054;-78
2022/08/15 04:02:49;;;;;;;15.32;10.43;;;;;;;;;;5004598;28;20116;-79
2022/08/15 04:05:18;;;;;;;13.88;9.80;;;;;;;;;;5004768;28;20047;-79
2022/08/15 04:07:49;;;;;;;14.85;10.50;;;;;;;;;;5006982;28;20050;-78
2022/08/15 04:10:24;;;;;;;12.75;9.32;;;;;;;;;;5002012;28;20054;-78
2022/08/15 04:13:12;;;;;;;12.52;8.38;;;;;;;;;;5005138;28;20055;-78
2022/08/15 04:15:41;;;;;;;13.45;9.07;;;;;;;;;;5006021;28;20060;-78
2022/08/15 04:18:09;;;;;;;16.65;8.80;;;;;;;;;;5003696;28;20194;-78
2022/08/15 04:21:00;;;;;;;11.45;8.77;;;;;;;;;;5000522;28;20089;-78
2022/08/15 04:23:28;;;;;;;14.45;8.75;;;;;;;;;;5002842;28;20053;-78
2022/08/15 04:25:59;;;;;;;15.05;8.63;;;;;;;;;;5020488;28;20066;-78
2022/08/15 04:28:34;;;;;;;17.52;8.82;;;;;;;;;;5005536;28;20942;-78
2022/08/15 04:31:21;;;;;;;16.63;9.13;;;;;;;;;;5004104;28;20047;-78
2022/08/15 04:33:48;;;;;;;14.48;8.27;;;;;;;;;;5000146;28;20047;-78
2022/08/15 04:36:36;;;;;;;13.50;8.15;;;;;;;;;;5005605;28;20782;-78
2022/08/15 04:39:03;;;;;;;9.98;8.68;;;;;;;;;;5000681;28;20050;-78
2022/08/15 04:41:32;;;;;;;13.07;8.07;;;;;;;;;;5003516;28;20066;-78
2022/08/15 04:44:04;;;;;;;13.68;8.23;;;;;;;;;;4998641;28;20082;-75
2022/08/15 04:46:31;;;;;;;16.10;8.60;;;;;;;;;;4998488;28;20082;-75
2022/08/15 04:48:59;;;;;;;11.15;8.77;;;;;;;;;;5005626;28;20568;-76
2022/08/15 04:51:27;;;;;;;14.10;9.15;;;;;;;;;;4998075;28;20050;-75
2022/08/15 04:54:02;;;;;;;11.13;8.40;;;;;;;;;;5003186;28;20062;-76
2022/08/15 04:56:29;;;;;;;16.85;8.80;;;;;;;;;;5001442;28;20905;-75
2022/08/15 04:59:17;;;;;;;11.25;7.85;;;;;;;;;;4999527;28;20054;-75
2022/08/15 05:02:13;;;;;;;15.93;8.85;;;;;;;;;;5003895;28;20501;-74
2022/08/15 05:05:00;;;;;;;12.80;8.85;;;;;;;;;;5006022;28;20050;-76
2022/08/15 05:07:28;;;;;;;12.68;9.40;;;;;;;;;;5006083;28;20050;-76
2022/08/15 05:09:57;;;;;;;14.00;9.70;;;;;;;;;;5012961;28;20549;-76
2022/08/15 05:12:37;;;;;;;12.43;10.05;;;;;;;;;;5004652;28;20058;-75
2022/08/15 05:15:08;;;;;;;17.92;12.13;;;;;;;;;;5007819;28;20050;-76
2022/08/15 05:17:37;;;;;;;16.35;12.23;;;;;;;;;;5006201;28;20054;-75
2022/08/15 05:20:24;;;;;;;15.13;11.43;;;;;;;;;;5005565;28;20054;-76
2022/08/15 05:22:58;;;;;;;16.80;12.20;;;;;;;;;;5002384;28;20113;-75
2022/08/15 05:25:28;;;;;;;14.95;11.48;;;;;;;;;;5008818;28;20496;-75
2022/08/15 05:27:58;;;;;;;16.60;12.30;;;;;;;;;;5005598;28;20078;-75
2022/08/15 05:30:25;;;;;;;16.70;11.27;;;;;;;;;;5008737;28;20054;-75
2022/08/15 05:33:11;;;;;;;16.02;11.65;;;;;;;;;;5007327;28;20059;-76
2022/08/15 05:35:42;;;;;;;13.35;10.98;;;;;;;;;;5003331;28;20055;-75
2022/08/15 05:38:22;;;;;;;17.13;11.38;;;;;;;;;;5014345;28;20940;-75
2022/08/15 05:41:16;;;;;;;19.98;10.70;;;;;;;;;;5000925;28;20051;-75
2022/08/15 05:44:06;;;;;;;16.05;10.32;;;;;;;;;;5004882;28;20078;-74
2022/08/15 05:47:09;;;;;;;12.95;9.77;;;;;;;;;;5003308;28;20090;-74
2022/08/15 05:49:53;;;;;;;12.55;8.85;;;;;;;;;;5005521;28;20058;-74
2022/08/15 05:52:30;;;;;;;12.75;8.88;;;;;;;;;;5007025;28;20174;-74
2022/08/15 05:55:15;;;;;;;16.98;9.07;;;;;;;;;;5003329;28;20062;-75
2022/08/15 05:58:01;;;;;;;16.60;8.45;;;;;;;;;;5005714;28;20066;-76
2022/08/15 06:00:57;;;;;;;9.73;7.38;;;;;;;;;;5007318;28;20058;-75
2022/08/15 06:03:26;;;;;;;14.48;8.48;;;;;;;;;;5004646;28;20047;-75
2022/08/15 06:06:11;;;;;;;18.30;8.20;;;;;;;;;;5006149;28;20174;-75
2022/08/15 06:08:59;;;;;;;12.00;7.28;;;;;;;;;;5005054;28;20073;-75
2022/08/15 06:11:32;;;;;;;9.57;7.15;;;;;;;;;;5006942;28;20883;-74
2022/08/15 06:14:19;;;;;;;18.08;8.75;;;;;;;;;;5005793;28;20046;-75
2022/08/15 06:16:52;;;;;;;14.25;7.75;;;;;;;;;;5000572;28;20138;-75
2022/08/15 06:19:22;;;;;;;19.58;8.35;;;;;;;;;;5002153;28;20529;-75
2022/08/15 06:22:08;;;;;;;13.10;8.10;;;;;;;;;;5009224;28;20050;-75
2022/08/15 06:24:54;;;;;;;11.38;8.07;;;;;;;;;;5008987;28;20101;-75
2022/08/15 06:27:33;;;;;;;10.32;7.47;;;;;;;;;;5005872;28;20051;-75
2022/08/15 06:30:12;;;;;;;11.65;7.30;;;;;;;;;;5019242;28;20045;-76
2022/08/15 06:32:39;;;;;;;;;;;;;;;;;;5004754;28;20054;-76
2022/08/15 06:35:29;;;;;;;13.93;6.65;;;;;;;;;;5008066;28;44762;-75
2022/08/15 06:38:00;;;;;;;10.98;6.35;;;;;;;;;;5006766;28;20424;-75
2022/08/15 06:40:42;;;;;;;10.82;6.03;;;;;;;;;;5009818;28;20050;-75
2022/08/15 06:43:13;;;;;;;11.45;5.60;;;;;;;;;;5007361;28;20058;-75
2022/08/15 06:45:42;;;;;;;12.70;5.45;;;;;;;;;;5003575;28;20890;-74
2022/08/15 06:48:22;;;;;;;11.63;5.03;;;;;;;;;;5021431;28;20125;-75
2022/08/15 06:51:11;;;;;;;9.32;4.97;;;;;;;;;;5000224;28;20047;-76
2022/08/15 06:53:43;;;;;;;7.90;4.18;;;;;;;;;;5003085;28;20054;-75
2022/08/15 06:56:21;;;;;;;8.98;3.80;;;;;;;;;;5002468;28;20046;-77
2022/08/15 06:59:01;;;;;;;6.20;3.33;;;;;;;;;;5004559;28;20058;-78
2022/08/15 07:01:34;;;;;;;8.27;3.40;;;;;;;;;;5000115;28;20054;-77
2022/08/15 07:04:33;;;;;;;4.30;2.83;;;;;;;;;;5000691;28;20054;-77
2022/08/15 07:07:09;;;;;;;4.83;2.83;;;;;;;;;;5001098;28;20058;-77
2022/08/15 07:09:50;;;;;;;4.65;2.72;;;;;;;;;;5002018;28;20863;-78
2022/08/15 07:12:26;;;;;;;7.18;3.03;;;;;;;;;;5001241;28;20139;-77
2022/08/15 07:15:08;;;;;;;3.47;2.50;;;;;;;;;;4995160;28;20145;-78
2022/08/15 07:18:14;;;;;;;5.03;2.63;;;;;;;;;;5002703;28;20117;-78
2022/08/15 07:20:42;;;;;;;5.93;2.75;;;;;;;;;;5006863;28;20082;-79
2022/08/15 07:23:15;;;;;;;4.90;2.67;;;;;;;;;;5005518;28;21393;-77
2022/08/15 07:25:42;;;;;;;;;;;;;;;;;;5002835;28;20448;-77
2022/08/15 07:28:16;;;;;;;9.57;2.15;;;;;;;;;;5001856;28;45069;-77
2022/08/15 07:31:12;;;;;;;5.22;2.40;;;;;;;;;;5006763;28;20895;-77
2022/08/15 07:33:48;;;;;;;4.60;2.25;;;;;;;;;;5006060;28;20050;-77
2022/08/15 07:36:28;;;;;;;12.47;2.50;;;;;;;;;;5004189;28;20050;-77
2022/08/15 07:39:02;;;;;;;6.30;2.13;;;;;;;;;;5000632;28;20069;-78
2022/08/15 07:41:33;;;;;;;4.60;2.58;;;;;;;;;;5004733;28;20058;-78
2022/08/15 07:44:18;;;;;;;4.68;2.50;;;;;;;;;;5004885;28;20145;-78
2022/08/15 07:46:55;;;;;;;7.78;2.60;;;;;;;;;;5005293;28;20065;-78
2022/08/15 07:49:32;;;;;;;5.32;2.55;;;;;;;;;;5005669;28;20050;-77
2022/08/15 07:52:01;;;;;;;5.45;2.40;;;;;;;;;;4999863;28;21529;-77
2022/08/15 07:54:43;;;;;;;4.95;2.22;;;;;;;;;;5001643;28;20054;-77
2022/08/15 07:57:24;;;;;;;3.55;2.10;;;;;;;;;;4998383;28;20050;-77
2022/08/15 08:00:21;;;;;;;7.13;2.55;;;;;;;;;;4995196;28;20054;-77
2022/08/15 08:03:22;;;;;;;5.82;2.50;;;;;;;;;;5000910;28;20046;-78
2022/08/15 08:06:00;;;;;;;8.07;2.40;;;;;;;;;;5006117;28;20848;-77
2022/08/15 08:08:53;;;;;;;6.70;2.50;;;;;;;;;;5003736;28;20057;-78
2022/08/15 08:11:50;;;;;;;6.38;2.50;;;;;;;;;;5002416;28;20113;-78
2022/08/15 08:14:36;;;;;;;4.03;2.65;;;;;;;;;;4995792;28;20145;-77
2022/08/15 08:17:24;;;;;;;7.03;2.78;;;;;;;;;;5003024;28;20116;-78
2022/08/15 08:20:23;;;;;;;10.65;3.10;;;;;;;;;;5003914;28;20055;-78
2022/08/15 08:22:55;;;;;;;7.82;3.08;;;;;;;;;;4999241;28;20054;-77
2022/08/15 08:25:33;;;;;;;4.43;3.00;;;;;;;;;;5007593;28;20046;-78
2022/08/15 08:28:36;;;;;;;7.72;3.13;;;;;;;;;;5005508;28;20042;-78
2022/08/15 08:31:12;;;;;;;7.50;3.03;;;;;;;;;;5009600;28;20117;-77
2022/08/15 08:33:39;;;;;;;6.47;2.70;;;;;;;;;;5005972;28;20050;-78
2022/08/15 08:36:11;;;;;;;4.28;2.58;;;;;;;;;;4997883;28;20059;-78
2022/08/15 08:39:07;;;;;;;6.07;2.70;;;;;;;;;;4996905;28;20063;-78
2022/08/15 08:41:42;;;;;;;4.15;2.65;;;;;;;;;;5005163;28;20085;-78
2022/08/15 08:44:21;;;;;;;7.05;3.00;;;;;;;;;;5005123;28;20035;-77
2022/08/15 08:47:02;;;;;;;8.40;3.15;;;;;;;;;;4994218;28;20098;-78
2022/08/15 08:49:34;;;;;;;4.55;3.10;;;;;;;;;;4999941;28;20055;-77
2022/08/15 08:52:34;;;;;;;7.38;3.05;;;;;;;;;;5007285;28;20054;-77
2022/08/15 08:55:05;;;;;;;10.25;3.40;;;;;;;;;;5006670;28;22135;-77
2022/08/15 08:57:41;;;;;;;5.05;3.45;;;;;;;;;;5008790;28;20133;-77
2022/08/15 09:00:12;;;;;;;10.95;3.55;;;;;;;;;;5007062;28;20062;-77
2022/08/15 09:02:55;;;;;;;8.37;2.83;;;;;;;;;;4999386;28;20150;-77
2022/08/15 09:05:35;;;;;;;11.55;3.20;;;;;;;;;;5005315;28;20286;-78
2022/08/15 09:08:18;;;;;;;10.50;3.92;;;;;;;;;;5005780;28;20141;-77
2022/08/15 09:10:50;;;;;;;7.03;3.77;;;;;;;;;;5020412;28;20410;-77
2022/08/15 09:13:34;;;;;;;8.38;3.80;;;;;;;;;;5002685;28;20086;-78
2022/08/15 09:16:11;;;;;;;8.82;4.15;;;;;;;;;;5001934;28;20098;-80
2022/08/15 09:18:48;;;;;;;9.65;3.83;;;;;;;;;;5008063;28;20878;-81
2022/08/15 09:21:17;;;;;;;6.72;4.15;;;;;;;;;;5005833;28;20101;-81
2022/08/15 09:23:45;;;;;;;12.90;4.43;;;;;;;;;;5005943;28;20054;-81
2022/08/15 09:26:35;;;;;;;8.85;5.00;;;;;;;;;;5005404;28;20678;-80
2022/08/15 09:29:27;;;;;;;9.05;4.13;;;;;;;;;;5006622;28;20046;-81
2022/08/15 09:32:00;;;;;;;8.65;4.63;;;;;;;;;;5006771;28;20080;-80
2022/08/15 09:34:36;;;;;;;6.00;3.97;;;;;;;;;;5008760;28;20046;-80
2022/08/15 09:37:22;;;;;;;10.65;4.30;;;;;;;;;;5006173;28;20145;-81
2022/08/15 09:39:58;;;;;;;13.60;4.50;;;;;;;;;;5008743;28;20047;-80
2022/08/15 09:42:39;;;;;;;10.00;4.75;;;;;;;;;;5004495;28;20141;-80
2022/08/15 09:45:32;;;;;;;11.20;4.57;;;;;;;;;;5018561;28;20110;-80
2022/08/15 09:48:18;;;;;;;11.10;4.45;;;;;;;;;;5005253;28;20548;-80
2022/08/15 09:51:04;;;;;;;11.77;4.72;;;;;;;;;;5005797;28;20051;-80
2022/08/15 09:53:40;;;;;;;10.55;4.78;;;;;;;;;;5004088;28;20058;-80
2022/08/15 09:56:28;;;;;;;11.52;4.45;;;;;;;;;;5005741;28;20066;-81
2022/08/15 09:58:59;;;;;;;8.13;4.30;;;;;;;;;;5003322;28;20058;-80
2022/08/15 10:01:29;;;;;;;7.18;4.35;;;;;;;;;;5005300;28;20101;-79
2022/08/15 10:04:07;;;;;;;10.45;4.93;;;;;;;;;;4998003;28;20125;-81
2022/08/15 10:06:48;;;;;;;9.68;4.97;;;;;;;;;;4999509;28;20054;-79
2022/08/15 10:09:17;;;;;;;9.77;5.40;;;;;;;;;;4998425;28;20800;-79
2022/08/15 10:12:06;;;;;;;10.57;5.53;;;;;;;;;;5000525;28;20117;-79
2022/08/15 10:14:53;;;;;;;14.25;6.05;;;;;;;;;;5003423;28;20059;-79
2022/08/15 10:17:28;;;;;;;10.40;6.65;;;;;;;;;;5000554;28;20054;-80
2022/08/15 10:19:59;;;;;;;10.15;6.57;;;;;;;;;;5002035;28;20062;-80
2022/08/15 10:22:48;;;;;;;11.20;6.55;;;;;;;;;;5002482;28;20054;-79
2022/08/15 10:25:20;;;;;;;14.10;6.65;;;;;;;;;;5007996;28;20055;-79
2022/08/15 10:28:16;;;;;;;15.70;7.05;;;;;;;;;;5000256;28;20057;-79
2022/08/15 10:31:05;;;;;;;9.40;6.00;;;;;;;;;;4999987;28;20057;-79
2022/08/15 10:33:33;;;;;;;12.05;5.97;;;;;;;;;;4999981;28;20050;-79
2022/08/15 10:36:13;;;;;;;11.68;6.43;;;;;;;;;;5006151;28;20062;-79
2022/08/15 10:39:14;;;;;;;11.40;7.30;;;;;;;;;;5000102;28;20417;-79
2022/08/15 10:41:46;;;;;;;13.63;6.43;;;;;;;;;;4999550;28;20801;-80
2022/08/15 10:44:32;;;;;;;11.23;7.43;;;;;;;;;;5001646;28;20060;-79
2022/08/15 10:47:01;;;;;;;14.23;7.88;;;;;;;;;;5004378;28;20054;-78
2022/08/15 10:49:39;;;;;;;17.08;7.90;;;;;;;;;;5004297;28;20058;-80
2022/08/15 10:52:33;;;;;;;12.68;8.10;;;;;;;;;;5000327;28;20133;-79
2022/08/15 10:55:03;;;;;;;12.38;7.97;;;;;;;;;;4993277;28;20638;-78
2022/08/15 10:57:38;;;;;;;12.82;8.38;;;;;;;;;;5018630;28;20054;-79
2022/08/15 11:00:14;;;;;;;15.40;8.38;;;;;;;;;;5001019;28;20938;-79
2022/08/15 11:03:03;;;;;;;12.18;7.30;;;;;;;;;;5001632;28;20059;-78
2022/08/15 11:05:37;;;;;;;14.48;8.02;;;;;;;;;;5005069;28;20074;-77
2022/08/15 11:08:17;;;;;;;15.02;8.32;;;;;;;;;;5002781;28;20109;-78
2022/08/15 11:10:45;;;;;;;16.95;8.93;;;;;;;;;;5002899;28;20061;-78
2022/08/15 11:13:14;;;;;;;12.80;8.45;;;;;;;;;;5002979;28;20038;-79
2022/08/15 11:15:54;;;;;;;17.70;9.45;;;;;;;;;;5006393;28;20070;-80
2022/08/15 11:18:34;;;;;;;18.00;9.68;;;;;;;;;;5000408;28;20054;-78
2022/08/15 11:21:04;;;;;;;17.58;9.05;;;;;;;;;;5002669;28;21292;-79
2022/08/15 11:23:39;;;;;;;16.10;8.93;;;;;;;;;;4997414;28;20125;-79
2022/08/15 11:26:10;;;;;;;17.65;9.82;;;;;;;;;;4999316;28;20113;-77
2022/08/15 11:28:55;;;;;;;15.05;9.10;;;;;;;;;;5001474;28;20520;-79
2022/08/15 11:31:29;;;;;;;15.07;8.65;;;;;;;;;;5000072;28;20061;-79
2022/08/15 11:34:03;;;;;;;13.68;7.13;;;;;;;;;;5001653;28;20615;-80
2022/08/15 11:36:51;;;;;;;12.25;7.57;;;;;;;;;;5000881;28;20046;-79
2022/08/15 11:39:19;;;;;;;13.73;7.65;;;;;;;;;;5000793;28;20054;-80
2022/08/15 11:42:03;;;;;;;17.92;8.48;;;;;;;;;;5023831;28;20060;-78
2022/08/15 11:44:36;;;;;;;13.90;8.10;;;;;;;;;;5003363;28;20133;-80
2022/08/15 11:47:08;;;;;;;12.45;7.65;;;;;;;;;;5000117;28;20847;-79
2022/08/15 11:49:42;;;;;;;13.10;7.88;;;;;;;;;;4996185;28;20065;-80
2022/08/15 11:52:23;;;;;;;15.90;7.95;;;;;;;;;;5001626;28;20832;-77
2022/08/15 11:55:16;;;;;;;16.73;8.45;;;;;;;;;;5005568;28;20062;-79
2022/08/15 11:58:15;;;;;;;13.35;7.88;;;;;;;;;;5004474;28;20057;-79
2022/08/15 12:00:46;;;;;;;12.90;8.07;;;;;;;;;;5005333;28;20058;-79
2022/08/15 12:03:18;;;;;;;12.50;7.95;;;;;;;;;;4999973;28;20039;-80
2022/08/15 12:06:14;;;;;;;15.52;7.68;;;;;;;;;;5000282;28;20057;-79
2022/08/15 12:09:11;;;;;;;10.90;7.28;;;;;;;;;;5005175;28;20061;-81
2022/08/15 12:11:51;;;;;;;12.43;7.18;;;;;;;;;;5001213;28;20054;-80
2022/08/15 12:14:21;;;;;;;10.93;7.20;;;;;;;;;;5001760;28;20051;-80
2022/08/15 12:17:03;;;;;;;14.52;7.57;;;;;;;;;;5002476;28;20046;-79
2022/08/15 12:19:37;;;;;;;11.32;7.72;;;;;;;;;;4999024;28;20851;-80
2022/08/15 12:22:30;;;;;;;13.30;7.80;;;;;;;;;;5000473;28;20381;-79
2022/08/15 12:25:18;;;;;;;12.07;7.20;;;;;;;;;;5001249;28;20050;-79
2022/08/15 12:28:06;;;;;;;10.20;7.18;;;;;;;;;;5000564;28;20113;-80
2022/08/15 12:30:55;;;;;;;12.57;7.88;;;;;;;;;;5000145;28;20501;-79
2022/08/15 12:33:24;;;;;;;13.90;7.78;;;;;;;;;;4999764;28;20050;-79
2022/08/15 12:35:54;;;;;;;12.68;7.60;;;;;;;;;;5002050;28;20050;-80
2022/08/15 12:38:28;;;;;;;15.27;7.13;;;;;;;;;;4990617;28;20063;-77
2022/08/15 12:40:59;;;;;;;12.00;7.63;;;;;;;;;;4999020;28;20090;-78
2022/08/15 12:43:46;;;;;;;9.82;7.20;;;;;;;;;;5005939;28;20046;-78
2022/08/15 12:46:19;;;;;;;13.35;6.90;;;;;;;;;;5008094;28;20050;-78
2022/08/15 12:48:52;;;;;;;11.95;6.18;;;;;;;;;;4994905;28;20055;-78
2022/08/15 12:51:26;;;;;;;10.77;5.72;;;;;;;;;;5000857;28;20054;-78
2022/08/15 12:53:56;;;;;;;10.80;5.15;;;;;;;;;;4999610;28;20059;-78
2022/08/15 12:56:23;;;;;;;8.73;5.28;;;;;;;;;;5012708;28;20140;-78
2022/08/15 12:59:11;;;;;;;7.95;4.45;;;;;;;;;;4996570;28;20113;-78
2022/08/15 13:01:40;;;;;;;10.15;5.75;;;;;;;;;;4999521;28;20061;-77
2022/08/15 13:04:25;;;;;;;10.23;5.82;;;;;;;;;;4996925;28;20065;-77
2022/08/15 13:07:13;;;;;;;9.77;5.60;;;;;;;;;;4997826;28;20101;-77
2022/08/15 13:10:01;;;;;;;11.88;5.35;;;;;;;;;;5007394;28;20050;-77
2022/08/15 13:12:48;;;;;;;8.93;5.10;;;;;;;;;;5000526;28;20050;-76
2022/08/15 13:15:20;;;;;;;10.45;5.63;;;;;;;;;;5001428;28;20085;-77
2022/08/15 13:17:55;;;;;;;9.73;5.65;;;;;;;;;;4998789;28;20129;-76
2022/08/15 13:23:38;;;;;;;10.95;6.70;;;;;;;;;;4993509;28;20047;-77
2022/08/15 13:26:28;;;;;;;9.48;6.43;;;;;;;;;;5000752;28;20738;-76
2022/08/15 13:29:00;;;;;;;16.60;7.57;;;;;;;;;;4995177;28;20114;-76
2022/08/15 13:31:28;;;;;;;11.38;7.40;;;;;;;;;;5002514;28;20082;-76
2022/08/15 13:33:58;;;;;;;12.32;8.05;;;;;;;;;;5003013;28;20057;-77
2022/08/15 13:36:30;;;;;;;16.40;7.80;;;;;;;;;;5001105;28;20126;-77
2022/08/15 13:39:04;;;;;;;19.10;8.45;;;;;;;;;;5002200;28;20066;-77
2022/08/15 13:41:40;;;;;;;14.30;9.48;;;;;;;;;;5002905;28;20047;-77
2022/08/15 13:44:31;;;;;;;17.23;8.90;;;;;;;;;;5002726;28;20061;-77
2022/08/15 13:47:02;;;;;;;17.63;9.10;;;;;;;;;;5000713;28;20061;-77
2022/08/15 13:49:39;;;;;;;24.83;10.10;;;;;;;;;;5007086;28;20060;-76
2022/08/15 13:52:09;;;;;;;16.00;9.90;;;;;;;;;;5008052;28;20046;-77
2022/08/15 13:54:59;;;;;;;15.38;10.05;;;;;;;;;;5007626;28;20061;-77
2022/08/15 13:57:28;;;;;;;14.20;8.95;;;;;;;;;;5000832;28;20047;-77
2022/08/15 14:00:01;;;;;;;16.30;9.65;;;;;;;;;;5002414;28;20051;-77
2022/08/15 14:02:50;;;;;;;15.07;9.95;;;;;;;;;;5005774;28;20059;-76
2022/08/15 14:05:17;;;;;;;16.27;10.02;;;;;;;;;;4995688;28;20106;-76
2022/08/15 14:07:46;;;;;;;15.25;9.73;;;;;;;;;;4998117;28;20062;-76
2022/08/15 14:10:25;;;;;;;15.00;10.32;;;;;;;;;;5003725;28;20109;-77
2022/08/15 14:13:16;;;;;;;14.80;9.63;;;;;;;;;;5003687;28;20066;-77
2022/08/15 14:15:48;;;;;;;16.05;9.00;;;;;;;;;;5004411;28;20058;-76
2022/08/15 14:18:36;;;;;;;20.80;8.77;;;;;;;;;;5005503;28;20058;-76
2022/08/15 14:21:17;;;;;;;14.13;8.65;;;;;;;;;;5004242;28;20119;-76
2022/08/15 14:23:57;;;;;;;12.55;8.07;;;;;;;;;;5008190;28;20046;-77
2022/08/15 14:26:27;;;;;;;15.73;9.65;;;;;;;;;;5004886;28;20046;-77
2022/08/15 14:29:34;;;;;;;17.58;10.25;;;;;;;;;;5004962;28;20046;-77
2022/08/15 14:32:23;;;;;;;18.33;10.23;;;;;;;;;;5000470;28;20054;-77
2022/08/15 14:35:13;;;;;;;13.05;9.75;;;;;;;;;;5003329;28;20141;-77
2022/08/15 14:37:47;;;;;;;12.82;9.25;;;;;;;;;;5007966;28;20910;-77
2022/08/15 14:40:35;;;;;;;19.88;10.35;;;;;;;;;;5002184;28;20078;-77
2022/08/15 14:43:06;;;;;;;17.08;10.20;;;;;;;;;;5006286;28;20892;-77
2022/08/15 14:45:38;;;;;;;16.25;10.63;;;;;;;;;;5005186;28;20050;-78
2022/08/15 14:48:27;;;;;;;14.93;10.85;;;;;;;;;;5005582;28;20082;-77
2022/08/15 14:51:18;;;;;;;14.82;10.30;;;;;;;;;;5002266;28;20050;-77
2022/08/15 14:54:09;;;;;;;12.95;9.20;;;;;;;;;;5000042;28;20065;-78
2022/08/15 14:57:00;;;;;;;22.48;10.23;;;;;;;;;;4999099;28;20058;-77
2022/08/15 14:59:29;;;;;;;18.13;9.90;;;;;;;;;;5000603;28;20055;-76
2022/08/15 15:02:06;;;;;;;18.17;10.35;;;;;;;;;;4999330;28;20258;-77
2022/08/15 15:04:35;;;;;;;18.13;10.43;;;;;;;;;;4995207;28;20058;-77
2022/08/15 15:07:04;;;;;;;15.68;10.48;;;;;;;;;;4997936;28;20097;-77
2022/08/15 15:09:48;;;;;;;20.30;10.55;;;;;;;;;;5002656;28;20055;-77
2022/08/15 15:12:19;;;;;;;15.85;10.55;;;;;;;;;;5004789;28;20046;-77
2022/08/15 15:14:47;;;;;;;16.50;9.85;;;;;;;;;;5004152;28;20042;-77
2022/08/15 15:17:16;;;;;;;15.85;9.57;;;;;;;;;;5003248;28;20046;-77
2022/08/15 15:19:50;;;;;;;12.77;9.30;;;;;;;;;;5002008;28;20570;-77
2022/08/15 15:22:21;;;;;;;19.35;10.18;;;;;;;;;;5003213;28;20065;-77
2022/08/15 15:24:48;;;;;;;15.52;8.43;;;;;;;;;;5002651;28;20847;-77
2022/08/15 15:27:18;;;;;;;11.18;8.05;;;;;;;;;;5000879;28;20087;-77
2022/08/15 15:29:52;;;;;;;11.95;7.88;;;;;;;;;;5002251;28;20093;-77
2022/08/15 15:32:20;;;;;;;13.13;8.25;;;;;;;;;;5001147;28;20054;-77
2022/08/15 15:35:04;;;;;;;16.85;8.77;;;;;;;;;;5005405;28;20870;-77